• Join FlightAware (Why Join?)
  • Login
  • US Flag GB Flag 
06:29 EDT


 

Airport Tracker/Info


-or-


 

Live Flight TrackerFlight Track Log ✈ GJS3710 ✈ 07-May-2013 ✈ KDEN - KMSN

Flight Track Log - Related Links

Times and Time Zones

All times are in EDT time to prevent confusion due to time zone crossing. See the GJS3710 flight status page for this flight to view local times or setup timezone preferences in your user account.

Time Position Orientation Groundspeed Altitude Reporting Facility
EDT Latitude Longitude Course Direction KTS MPH feet Rate Location/Type
18:16 39.8833 -104.5833 77° East 185 213 6,900  Level Denver TRACON
18:17 39.9000 -104.5000 75° East 253 291 8,300 1,500 Climbing Denver TRACON
18:18 39.9167 -104.4000 78° East 299 344 10,000 1,980 Climbing Denver TRACON
18:19 39.9000 -104.2833 101° East 308 354 12,300 2,220 Climbing Denver TRACON
18:20 39.8867 -104.1411 97° East 327 376 15,000 1,980 Climbing Denver Center
18:21 40.0538 -103.5126 77° East  Level FlightAware Approximate
18:21 39.8714 -104.0139 99° East 357 411 16,800  Level Denver Center
18:22 39.8544 -103.8714 99° East 365 420 18,900 1,620 Climbing Denver Center
18:23 39.8372 -103.7306 99° East 391 450 20,200 1,380 Climbing Denver Center
18:24 39.8192 -103.5856 99° East 403 464 21,800 1,620 Climbing Denver Center
18:25 39.7831 -103.4411 108° East 412 474 23,600 1,500 Climbing Denver Center
18:26 39.7375 -103.2994 113° Southeast 419 482 25,000 1,200 Climbing Denver Center
18:27 39.6917 -103.1539 112° Southeast 427 491 26,100 1,080 Climbing Denver Center
18:28 39.6458 -103.0050 112° Southeast 436 502 27,300 1,080 Climbing Denver Center
18:29 39.5942 -102.8569 114° Southeast 442 509 28,400 1,080 Climbing Denver Center
18:30 39.5439 -102.7061 113° Southeast 451 519 29,600 1,140 Climbing Denver Center
18:31 39.4858 -102.5303 113° Southeast 451 519 30,800 900 Climbing Denver Center
18:32 39.4375 -102.3769 112° Southeast 455 524 31,500 480 Climbing Denver Center
18:33 39.4389 -102.2039 89° East 471 542 31,800 300 Climbing Denver Center
18:34 39.4914 -102.0517 66° East 484 557 32,200 660 Climbing Denver Center
18:35 39.5547 -101.8733 65° Northeast 489 563 33,200 840 Climbing Denver Center
18:36 39.6092 -101.7225 65° Northeast 485 558 34,000 780 Climbing Denver Center
18:37 39.6722 -101.5456 65° Northeast 486 559 34,900 840 Climbing Denver Center
18:38 39.7253 -101.3958 65° Northeast 478 550 35,800 780 Climbing Denver Center
18:39 39.7867 -101.2200 66° East 480 552 36,600 540 Climbing Denver Center
18:40 39.8383 -101.0703 66° East 476 548 37,000 120 Climbing Denver Center
18:42 39.8730 -100.9137 74° East  Level FlightAware Approximate
18:43 39.9525 -100.7417 74° East 483 556 37,000  Level Denver Center
18:44 40.0058 -100.5875 66° East 487 560 37,000  Level Denver Center
18:45 40.0661 -100.4100 66° East 482 555 37,000  Level Denver Center
18:46 40.1183 -100.2558 66° East 485 558 37,000  Level Denver Center
18:47 40.1792 -100.0761 66° East 488 562 37,000  Level Denver Center
18:48 40.2306 -99.9214 66° East 487 560 37,000  Level Denver Center
18:49 40.2903 -99.7433 66° East 483 556 37,000  Level Denver Center
18:50 40.3444 -99.5808 66° East 486 559 37,000  Level Denver Center
18:51 40.3978 -99.4192 67° East 485 558 37,000  Level Denver Center
18:52 40.4508 -99.2586 66° East 483 556 37,000  Level Denver Center
18:53 40.5019 -99.0983 67° East 479 551 37,000  Level Denver Center
18:53 40.5333 -99.0053 66° East 476 548 37,000  Level Minneapolis Center
18:54 40.5931 -98.8164 67° East 471 542 37,000  Level Minneapolis Center
18:55 40.6436 -98.6597 67° East 469 540 37,000  Level Minneapolis Center
18:57 40.6928 -98.5028 68° East 468 539 37,000  Level Minneapolis Center
18:58 40.7428 -98.3469 67° East 466 536 37,000  Level Minneapolis Center
18:59 40.7919 -98.1917 67° East 464 534 37,000  Level Minneapolis Center
19:00 40.8500 -98.0053 68° East 461 531 37,000  Level Minneapolis Center
19:01 40.8983 -97.8483 68° East 462 532 37,000  Level Minneapolis Center
19:02 40.9469 -97.6931 67° East 461 531 37,000  Level Minneapolis Center
19:03 40.9942 -97.5358 68° East 460 529 37,000  Level Minneapolis Center
19:04 41.0486 -97.3606 68° East 460 529 37,000  Level Minneapolis Center
19:05 41.0964 -97.2017 68° East 463 533 37,000  Level Minneapolis Center
19:06 41.1506 -97.0469 65° Northeast 463 533 37,000  Level Minneapolis Center
19:07 41.2222 -96.9006 57° Northeast 467 537 37,000  Level Minneapolis Center
19:08 41.2947 -96.7558 56° Northeast 468 539 37,000  Level Minneapolis Center
19:09 41.3675 -96.6086 57° Northeast 474 545 37,000  Level Minneapolis Center
19:10 41.4383 -96.4589 58° Northeast 476 548 37,000  Level Minneapolis Center
19:11 41.4844 -96.2831 71° East 472 543 37,000  Level Minneapolis Center
19:12 41.5389 -96.0861 70° East 472 543 37,000  Level Minneapolis Center
19:13 41.5844 -95.9225 70° East 471 542 37,000  Level Minneapolis Center
19:14 41.6286 -95.7578 70° East 471 542 37,000  Level Minneapolis Center
19:15 41.6736 -95.5914 70° East 474 545 37,000  Level Minneapolis Center
19:16 41.7175 -95.4269 70° East 470 541 37,000  Level Minneapolis Center
19:17 41.7603 -95.2625 71° East 468 539 37,000  Level Minneapolis Center
19:18 41.8039 -95.0983 70° East 468 539 37,000  Level Minneapolis Center
19:19 41.8550 -94.9008 71° East 468 539 37,000  Level Minneapolis Center
19:20 41.8978 -94.7369 71° East 467 537 37,000  Level Minneapolis Center
19:21 41.9397 -94.5728 71° East 466 536 37,000  Level Minneapolis Center
19:22 41.9825 -94.4092 71° East 464 534 37,000  Level Minneapolis Center
19:23 42.0236 -94.2453 71° East 463 533 37,000  Level Minneapolis Center
19:24 42.0664 -94.0811 71° East 463 533 37,000  Level Minneapolis Center
19:25 42.1142 -93.8842 72° East 462 532 37,000  Level Minneapolis Center
19:27 42.1553 -93.7192 71° East 464 534 37,000  Level Minneapolis Center
19:28 42.1961 -93.5564 71° East 463 533 37,000  Level Minneapolis Center
19:29 42.2356 -93.3936 72° East 461 531 37,000  Level Minneapolis Center
19:30 42.2750 -93.2336 72° East 457 526 37,000 -120 Level Minneapolis Center
19:31 42.3147 -93.0708 72° East 461 531 36,800 -840 Descending Minneapolis Center
19:32 42.3614 -92.8739 72° East 465 535 35,300 -1,500 Descending Minneapolis Center
19:33 42.4006 -92.7083 72° East 466 536 33,800 -1,500 Descending Minneapolis Center
19:34 42.4383 -92.5453 73° East 463 533 32,300 -1,500 Descending Minneapolis Center
19:35 42.4769 -92.3828 72° East 460 529 30,800 -1,560 Descending Minneapolis Center
19:36 42.5233 -92.1847 72° East 463 533 29,100 -1,620 Descending Minneapolis Center
19:36 42.5372 -92.1178 74° East 465 535 28,500 -1,440 Descending Chicago Center
19:37 42.5747 -91.9569 72° East 454 522 27,000 -1,440 Descending Chicago Center
19:38 42.6111 -91.7981 73° East 449 517 25,500 -1,500 Descending Chicago Center
19:39 42.6322 -91.7061 73° East 444 511 24,600 -960 Descending Minneapolis Center
19:40 42.6714 -91.5289 73° East 427 491 24,000 -1,020 Descending Minneapolis Center
19:41 42.7025 -91.3875 73° East 414 476 22,600 -1,320 Descending Minneapolis Center
19:41 42.7164 -91.3358 70° East 394 453 22,100 -1,380 Descending Chicago Center
19:42 42.7458 -91.2008 73° East 380 437 20,600 -1,620 Descending Chicago Center
19:44 42.7817 -91.0375 73° East 381 438 18,800 -1,560 Descending Chicago Center
19:45 42.8114 -90.9025 73° East 378 435 17,400 -1,440 Descending Chicago Center
19:46 42.8397 -90.7711 74° East 368 423 15,900 -1,500 Descending Chicago Center
19:47 42.8681 -90.6422 73° East 360 414 14,400 -1,620 Descending Chicago Center
19:48 42.9000 -90.4917 74° East 350 403 12,600 -1,500 Descending Chicago Center
19:49 42.9258 -90.3697 74° East 341 392 11,300 -780 Descending Chicago Center
19:50 42.9497 -90.2519 74° East 329 379 11,000 -180 Descending Chicago Center
19:51 42.9753 -90.1331 74° East 331 381 11,000  Level Chicago Center
19:52 43.0014 -90.0108 74° East 338 389 11,000 -300 Level Chicago Center
19:53 43.0286 -89.8797 74° East 319 367 10,500 -1,080 Descending Chicago Center
19:54 43.0489 -89.7714 76° East 296 341 8,800 -1,920 Descending Chicago Center
19:55 43.0747 -89.6544 73° East 279 321 6,600 -1,380 Descending Chicago Center
19:56 43.0950 -89.5547 74° East 274 315 6,000 -420 Descending Chicago Center
19:57 43.1414 -89.4892 46° Northeast 270 311 5,800 -780 Descending Chicago Center
19:58 43.2075 -89.4597 18° North 254 292 4,400 -1,320 Descending Chicago Center
19:59 43.2572 -89.4161 33° Northeast 241 277 3,100 -960 Descending Chicago Center
20:00 43.2336 -89.3544 118° Southeast 201 231 2,500 -720 Descending Chicago Center
20:01 43.1858 -89.3392 167° South 164 189 1,700 -660 Descending Chicago Center
20:02 43.1483 -89.3406 182° South 152 175 1,200 -540 Descending Chicago Center